Aquitania — MADG — position and weather

sailwx.info

Track history (hours):
 
Tides and Currents Weather Stations Pressure Air Temp Water Temp Dewpoint Dewpoint Depression Visibility Wind Speed Wind Dir Waves Ship Positions

Aquitania

Last reported at 2018-Jun-19 19:30 UTC. Time now 2018-Jun-25 02:08 UTC.
Position N 27°25' W 015°15'.

Length 190 m; draft 9.5 m.

Type: Cargo ship. MMSI: 235050012.

Date/timePositionNaut miles runAvg speedWind from/ knotsBaromVisibWave heightAir tempDewpointWater temp
2018-Jun-19 19:30N 27°25' W 015°15'714.4
2018-Jun-19 19:00N 27°32' W 015°15'713.9
2018-Jun-19 18:30N 27°39' W 015°15'713.4
2018-Jun-19 17:59N 27°45' W 015°15'713.7
2018-Jun-19 17:30N 27°52' W 015°15'713.8
2018-Jun-19 17:00N 27°59' W 015°15'612.9
2018-Jun-19 16:30N 28°04' W 015°19'5 9.7
2018-Jun-19 16:00N 28°07' W 015°24'1 1.8
2018-Jun-19 15:28N 28°07' W 015°24'0 0.0
2018-Jun-19 14:58N 28°07' W 015°24'0 0.0
2018-Jun-19 14:28N 28°07' W 015°24'0 0.0
2018-Jun-19 13:58N 28°07' W 015°24'0 0.0
2018-Jun-19 13:28N 28°07' W 015°24'0 0.0
2018-Jun-19 12:58N 28°07' W 015°24'0 0.0
2018-Jun-19 12:28N 28°07' W 015°24'0 0.0
2018-Jun-19 11:58N 28°07' W 015°24'0 0.0
2018-Jun-19 11:28N 28°07' W 015°24'0 0.0
2018-Jun-19 10:58N 28°07' W 015°24'0 0.0
2018-Jun-19 10:28N 28°07' W 015°24'0 0.0
2018-Jun-19 09:58N 28°07' W 015°24'0 0.0
2018-Jun-19 09:19N 28°07' W 015°24'0 0.0
2018-Jun-19 08:58N 28°07' W 015°24'0 0.0
2018-Jun-19 08:19N 28°07' W 015°24'0 0.0
2018-Jun-19 07:49N 28°07' W 015°24'0 0.0
2018-Jun-19 07:22N 28°07' W 015°24'0 0.0
2018-Jun-19 06:52N 28°07' W 015°24'0 0.0
2018-Jun-19 06:19N 28°07' W 015°24'0 0.1
2018-Jun-19 05:52N 28°07' W 015°24'0 0.1
2018-Jun-19 05:26N 28°07' W 015°24'1 1.2
2018-Jun-19 05:00N 28°07' W 015°24'2 4.1
2018-Jun-19 04:30N 28°07' W 015°22'3 7.0
2018-Jun-19 04:00N 28°07' W 015°18'510.7
2018-Jun-19 03:30N 28°08' W 015°12'612.5
2018-Jun-19 03:00N 28°09' W 015°05'612.0
2018-Jun-19 02:30N 28°12' W 014°59'714.0
2018-Jun-19 02:00N 28°19' W 014°56'714.0
2018-Jun-19 01:30N 28°25' W 014°53'713.8
2018-Jun-19 01:00N 28°32' W 014°51'713.6
2018-Jun-19 00:30N 28°38' W 014°48'713.4
2018-Jun-19 00:00N 28°44' W 014°45'713.2
2018-Jun-18 23:30N 28°50' W 014°42'713.3
2018-Jun-18 23:00N 28°56' W 014°38'713.3
2018-Jun-18 22:30N 29°01' W 014°33'713.4
2018-Jun-18 22:00N 29°07' W 014°28'813.6
2018-Jun-18 21:26N 29°13' W 014°23'613.7
2018-Jun-18 20:58N 29°18' W 014°19'713.8
2018-Jun-18 20:30N 29°23' W 014°14'713.7
2018-Jun-18 20:00N 29°29' W 014°10'713.7
2018-Jun-18 19:30N 29°34' W 014°05'813.6
2018-Jun-18 18:55N 29°40' W 013°60'613.3
2018-Jun-18 18:30N 29°44' W 013°55'713.4
2018-Jun-18 18:00N 29°49' W 013°49'52513.4
2018-Jun-17 02:39N 35°55' W 006°21'314.1
2018-Jun-17 02:28N 35°56' W 006°18'814.1
2018-Jun-17 01:55N 35°57' W 006°09'614.6
2018-Jun-17 01:30N 35°57' W 006°01'915.2
2018-Jun-17 00:54N 35°57' W 005°50'616.1
2018-Jun-17 00:30N 35°57' W 005°42'713.6
2018-Jun-17 00:00N 35°58' W 005°33'612.3
2018-Jun-16 23:30N 35°60' W 005°26'510.7
2018-Jun-16 23:00N 36°01' W 005°20'510.5
2018-Jun-16 22:30N 36°02' W 005°13'712.4
2018-Jun-16 21:58N 36°03' W 005°05'812.3
2018-Jun-16 21:19N 36°04' W 004°56'412.3
2018-Jun-16 21:00N 36°05' W 004°51'812.4
2018-Jun-16 20:22N 36°06' W 004°41'412.0
2018-Jun-16 20:00N 36°07' W 004°36'712.0
2018-Jun-16 19:25N 36°08' W 004°27'12513.5
2018-Jun-16 10:10N 36°28' W 001°54'213.6
2018-Jun-16 10:00N 36°28' W 001°52'1113.1
2018-Jun-16 09:10N 36°30' W 001°38'213.1
2018-Jun-16 08:59N 36°31' W 001°35'613.3
2018-Jun-16 08:30N 36°32' W 001°28'713.5
2018-Jun-16 08:00N 36°33' W 001°19'713.6
2018-Jun-16 07:30N 36°34' W 001°11'713.8
2018-Jun-16 07:00N 36°35' W 001°02'714.0
2018-Jun-16 06:31N 36°37' W 000°54'713.8
2018-Jun-16 06:00N 36°38' W 000°45'713.9
2018-Jun-16 05:31N 36°39' W 000°37'714.0
2018-Jun-16 05:00N 36°40' W 000°28'714.0
2018-Jun-16 04:30N 36°41' W 000°20'714.0
2018-Jun-16 04:01N 36°43' W 000°11'714.2
2018-Jun-16 03:30N 36°44' W 000°03'714.1
2018-Jun-16 03:00N 36°45' E 000°06'714.1
2018-Jun-16 02:31N 36°47' E 000°15'714.0
2018-Jun-16 02:00N 36°48' E 000°23'714.0
2018-Jun-16 01:30N 36°49' E 000°32'713.8
2018-Jun-16 01:01N 36°50' E 000°40'713.9
2018-Jun-16 00:31N 36°51' E 000°49'713.9
2018-Jun-16 00:00N 36°53' E 000°58'713.9
2018-Jun-15 23:30N 36°54' E 001°06'713.8
2018-Jun-15 23:00N 36°55' E 001°15'713.7
2018-Jun-15 22:30N 36°56' E 001°23'713.6
2018-Jun-15 22:00N 36°57' E 001°31'713.6
2018-Jun-15 21:29N 36°59' E 001°40'713.7
2018-Jun-15 21:00N 36°60' E 001°48'713.5
2018-Jun-15 20:30N 37°01' E 001°57'713.5
2018-Jun-15 20:00N 37°02' E 002°05'713.3
2018-Jun-15 19:30N 37°03' E 002°13'612.9
2018-Jun-15 19:00N 37°05' E 002°21'612.7
2018-Jun-15 18:30N 37°06' E 002°29'612.8
2018-Jun-15 18:00N 37°07' E 002°37'713.6
2018-Jun-15 17:30N 37°08' E 002°45'714.1
2018-Jun-15 17:00N 37°09' E 002°54'714.5
2018-Jun-15 16:30N 37°10' E 003°03'714.6
2018-Jun-15 16:00N 37°11' E 003°12'714.7
2018-Jun-15 15:30N 37°11' E 003°21'714.9
2018-Jun-15 15:00N 37°12' E 003°31'714.3
2018-Jun-15 14:30N 37°13' E 003°40'714.0
2018-Jun-15 14:00N 37°13' E 003°49'713.8
2018-Jun-15 13:30N 37°14' E 003°57'1213.7
2018-Jun-15 12:37N 37°15' E 004°12'913.6
2018-Jun-15 11:56N 37°15' E 004°24'  
Track history (hours):
 
Tides and Currents Weather Stations Pressure Air Temp Water Temp Dewpoint Dewpoint Depression Visibility Wind Speed Wind Dir Waves Ship Positions

Aquitania

Last reported at 2018-Jun-19 19:30 UTC. Time now 2018-Jun-25 02:08 UTC.
Position N 27°25' W 015°15'.

Length 190 m; draft 9.5 m.

Type: Cargo ship. MMSI: 235050012.

Date/timePositionNaut miles runAvg speedWind from/ knotsBaromVisibWave heightAir tempDewpointWater temp
2018-Jun-19 19:30N 27°25' W 015°15'714.4
2018-Jun-19 19:00N 27°32' W 015°15'713.9
2018-Jun-19 18:30N 27°39' W 015°15'713.4
2018-Jun-19 17:59N 27°45' W 015°15'713.7
2018-Jun-19 17:30N 27°52' W 015°15'713.8
2018-Jun-19 17:00N 27°59' W 015°15'612.9
2018-Jun-19 16:30N 28°04' W 015°19'5 9.7
2018-Jun-19 16:00N 28°07' W 015°24'1 1.8
2018-Jun-19 15:28N 28°07' W 015°24'0 0.0
2018-Jun-19 14:58N 28°07' W 015°24'0 0.0
2018-Jun-19 14:28N 28°07' W 015°24'0 0.0
2018-Jun-19 13:58N 28°07' W 015°24'0 0.0
2018-Jun-19 13:28N 28°07' W 015°24'0 0.0
2018-Jun-19 12:58N 28°07' W 015°24'0 0.0
2018-Jun-19 12:28N 28°07' W 015°24'0 0.0
2018-Jun-19 11:58N 28°07' W 015°24'0 0.0
2018-Jun-19 11:28N 28°07' W 015°24'0 0.0
2018-Jun-19 10:58N 28°07' W 015°24'0 0.0
2018-Jun-19 10:28N 28°07' W 015°24'0 0.0
2018-Jun-19 09:58N 28°07' W 015°24'0 0.0
2018-Jun-19 09:19N 28°07' W 015°24'0 0.0
2018-Jun-19 08:58N 28°07' W 015°24'0 0.0
2018-Jun-19 08:19N 28°07' W 015°24'0 0.0
2018-Jun-19 07:49N 28°07' W 015°24'0 0.0
2018-Jun-19 07:22N 28°07' W 015°24'0 0.0
2018-Jun-19 06:52N 28°07' W 015°24'0 0.0
2018-Jun-19 06:19N 28°07' W 015°24'0 0.1
2018-Jun-19 05:52N 28°07' W 015°24'0 0.1
2018-Jun-19 05:26N 28°07' W 015°24'1 1.2
2018-Jun-19 05:00N 28°07' W 015°24'2 4.1
2018-Jun-19 04:30N 28°07' W 015°22'3 7.0
2018-Jun-19 04:00N 28°07' W 015°18'510.7
2018-Jun-19 03:30N 28°08' W 015°12'612.5
2018-Jun-19 03:00N 28°09' W 015°05'612.0
2018-Jun-19 02:30N 28°12' W 014°59'714.0
2018-Jun-19 02:00N 28°19' W 014°56'714.0
2018-Jun-19 01:30N 28°25' W 014°53'713.8
2018-Jun-19 01:00N 28°32' W 014°51'713.6
2018-Jun-19 00:30N 28°38' W 014°48'713.4
2018-Jun-19 00:00N 28°44' W 014°45'713.2
2018-Jun-18 23:30N 28°50' W 014°42'713.3
2018-Jun-18 23:00N 28°56' W 014°38'713.3
2018-Jun-18 22:30N 29°01' W 014°33'713.4
2018-Jun-18 22:00N 29°07' W 014°28'813.6
2018-Jun-18 21:26N 29°13' W 014°23'613.7
2018-Jun-18 20:58N 29°18' W 014°19'713.8
2018-Jun-18 20:30N 29°23' W 014°14'713.7
2018-Jun-18 20:00N 29°29' W 014°10'713.7
2018-Jun-18 19:30N 29°34' W 014°05'813.6
2018-Jun-18 18:55N 29°40' W 013°60'613.3
2018-Jun-18 18:30N 29°44' W 013°55'713.4
2018-Jun-18 18:00N 29°49' W 013°49'52513.4
2018-Jun-17 02:39N 35°55' W 006°21'314.1
2018-Jun-17 02:28N 35°56' W 006°18'814.1
2018-Jun-17 01:55N 35°57' W 006°09'614.6
2018-Jun-17 01:30N 35°57' W 006°01'915.2
2018-Jun-17 00:54N 35°57' W 005°50'616.1
2018-Jun-17 00:30N 35°57' W 005°42'713.6
2018-Jun-17 00:00N 35°58' W 005°33'612.3
2018-Jun-16 23:30N 35°60' W 005°26'510.7
2018-Jun-16 23:00N 36°01' W 005°20'510.5
2018-Jun-16 22:30N 36°02' W 005°13'712.4
2018-Jun-16 21:58N 36°03' W 005°05'812.3
2018-Jun-16 21:19N 36°04' W 004°56'412.3
2018-Jun-16 21:00N 36°05' W 004°51'812.4
2018-Jun-16 20:22N 36°06' W 004°41'412.0
2018-Jun-16 20:00N 36°07' W 004°36'712.0
2018-Jun-16 19:25N 36°08' W 004°27'12513.5
2018-Jun-16 10:10N 36°28' W 001°54'213.6
2018-Jun-16 10:00N 36°28' W 001°52'1113.1
2018-Jun-16 09:10N 36°30' W 001°38'213.1
2018-Jun-16 08:59N 36°31' W 001°35'613.3
2018-Jun-16 08:30N 36°32' W 001°28'713.5
2018-Jun-16 08:00N 36°33' W 001°19'713.6
2018-Jun-16 07:30N 36°34' W 001°11'713.8
2018-Jun-16 07:00N 36°35' W 001°02'714.0
2018-Jun-16 06:31N 36°37' W 000°54'713.8
2018-Jun-16 06:00N 36°38' W 000°45'713.9
2018-Jun-16 05:31N 36°39' W 000°37'714.0
2018-Jun-16 05:00N 36°40' W 000°28'714.0
2018-Jun-16 04:30N 36°41' W 000°20'714.0
2018-Jun-16 04:01N 36°43' W 000°11'714.2
2018-Jun-16 03:30N 36°44' W 000°03'714.1
2018-Jun-16 03:00N 36°45' E 000°06'714.1
2018-Jun-16 02:31N 36°47' E 000°15'714.0
2018-Jun-16 02:00N 36°48' E 000°23'714.0
2018-Jun-16 01:30N 36°49' E 000°32'713.8
2018-Jun-16 01:01N 36°50' E 000°40'713.9
2018-Jun-16 00:31N 36°51' E 000°49'713.9
2018-Jun-16 00:00N 36°53' E 000°58'713.9
2018-Jun-15 23:30N 36°54' E 001°06'713.8
2018-Jun-15 23:00N 36°55' E 001°15'713.7
2018-Jun-15 22:30N 36°56' E 001°23'713.6
2018-Jun-15 22:00N 36°57' E 001°31'713.6
2018-Jun-15 21:29N 36°59' E 001°40'713.7
2018-Jun-15 21:00N 36°60' E 001°48'713.5
2018-Jun-15 20:30N 37°01' E 001°57'713.5
2018-Jun-15 20:00N 37°02' E 002°05'713.3
2018-Jun-15 19:30N 37°03' E 002°13'612.9
2018-Jun-15 19:00N 37°05' E 002°21'612.7
2018-Jun-15 18:30N 37°06' E 002°29'612.8
2018-Jun-15 18:00N 37°07' E 002°37'713.6
2018-Jun-15 17:30N 37°08' E 002°45'714.1
2018-Jun-15 17:00N 37°09' E 002°54'714.5
2018-Jun-15 16:30N 37°10' E 003°03'714.6
2018-Jun-15 16:00N 37°11' E 003°12'714.7
2018-Jun-15 15:30N 37°11' E 003°21'714.9
2018-Jun-15 15:00N 37°12' E 003°31'714.3
2018-Jun-15 14:30N 37°13' E 003°40'714.0
2018-Jun-15 14:00N 37°13' E 003°49'713.8
2018-Jun-15 13:30N 37°14' E 003°57'1213.7
2018-Jun-15 12:37N 37°15' E 004°12'913.6
2018-Jun-15 11:56N 37°15' E 004°24'  

Dump ship's entire track history